Time;durP1;ratioP1;P1;durP2;ratioP2;P2;SDS_P1;SDS_P2;PMS_P1;PMS_P2;Temp;Humidity;BMP_temperature;BMP_pressure;BME280_temperature;BME280_humidity;BME280_pressure;Samples;Min_cycle;Max_cycle;Signal;HPM_P1;HPM_P2
2022/05/20 00:02:17;;;;;;;;;;;16.60;1.00;;;;;;5054301;28;19944;-77
2022/05/20 00:04:43;;;;;;;;;;;16.60;1.00;;;;;;5054635;28;19913;-77
2022/05/20 00:07:09;;;;;;;;;;;16.60;1.00;;;;;;5054066;28;19948;-77
2022/05/20 00:09:50;;;;;;;;;;;16.60;1.00;;;;;;5054550;28;19908;-76
2022/05/20 00:12:32;;;;;;;;;;;16.60;1.00;;;;;;5054460;28;20012;-76
2022/05/20 00:15:03;;;;;;;;;;;16.60;1.00;;;;;;5058534;28;19922;-76
2022/05/20 00:17:29;;;;;;;;;;;16.50;1.00;;;;;;5060894;28;20378;-77
2022/05/20 00:20:03;;;;;;;;;;;16.50;1.00;;;;;;5065995;28;19913;-77
2022/05/20 00:22:50;;;;;;;;;;;16.50;1.00;;;;;;5072349;28;20391;-77
2022/05/20 00:37:16;;;;;;;;;;;16.50;1.00;;;;;;5064084;28;20452;-84
2022/05/20 00:43:08;;;;;;;;;;;16.60;1.00;;;;;;5058605;28;19920;-77
2022/05/20 00:45:51;;;;;;;;;;;16.60;1.00;;;;;;5057896;28;19966;-77
2022/05/20 00:48:16;;;;;;;;;;;16.60;1.00;;;;;;5075733;28;19909;-76
2022/05/20 00:50:47;;;;;;;;;;;16.60;1.00;;;;;;5078308;28;20402;-77
2022/05/20 00:53:16;;;;;;;;;;;16.60;1.00;;;;;;5074717;28;19917;-76
2022/05/20 00:55:44;;;;;;;;;;;16.60;1.00;;;;;;5060640;28;19913;-77
2022/05/20 00:58:12;;;;;;;;;;;16.60;1.00;;;;;;5062225;28;19947;-76
2022/05/20 01:00:41;;;;;;;;;;;16.60;1.00;;;;;;5074572;28;19913;-76
2022/05/20 01:03:09;;;;;;;;;;;16.60;1.00;;;;;;5051270;28;19920;-76
2022/05/20 01:05:41;;;;;;;;;;;16.70;1.00;;;;;;5048518;28;20409;-76
2022/05/20 01:08:19;;;;;;;;;;;16.70;1.00;;;;;;5060664;28;19908;-77
2022/05/20 01:10:45;;;;;;;;;;;16.80;1.00;;;;;;5040428;28;19917;-77
2022/05/20 01:13:38;;;;;;;;;;;16.80;1.00;;;;;;5057176;28;19920;-76
2022/05/20 01:16:07;;;;;;;;;;;16.80;1.00;;;;;;5064967;28;19912;-77
2022/05/20 01:18:40;;;;;;;;;;;16.90;1.00;;;;;;5059999;28;19913;-77
2022/05/20 01:21:08;;;;;;;;;;;16.90;1.00;;;;;;5060138;28;19909;-76
2022/05/20 01:23:34;;;;;;;;;;;16.90;1.00;;;;;;5059978;28;19913;-76
2022/05/20 01:26:02;;;;;;;;;;;17.00;1.00;;;;;;5089609;28;19923;-76
2022/05/20 01:28:33;;;;;;;;;;;17.00;1.00;;;;;;5077096;28;19917;-76
2022/05/20 01:31:04;;;;;;;;;;;17.10;1.00;;;;;;5073309;28;19917;-76
2022/05/20 01:33:50;;;;;;;;;;;17.10;1.00;;;;;;5061594;28;19974;-76
2022/05/20 01:36:17;;;;;;;;;;;17.10;1.00;;;;;;5059491;28;19952;-76
2022/05/20 01:38:44;;;;;;;;;;;17.10;1.00;;;;;;5068015;28;19943;-76
2022/05/20 01:41:14;;;;;;;;;;;17.10;1.00;;;;;;5063646;28;19995;-77
2022/05/20 01:43:50;;;;;;;;;;;17.10;1.00;;;;;;5061552;28;20016;-84
2022/05/20 01:58:36;;;;;;;;;;;17.10;1.00;;;;;;5076294;28;19915;-77
2022/05/20 02:01:03;;;;;;;;;;;17.10;1.00;;;;;;5064359;28;19908;-76
2022/05/20 02:03:36;;;;;;;;;;;17.10;1.00;;;;;;5054770;28;19928;-77
2022/05/20 02:06:06;;;;;;;;;;;17.10;1.00;;;;;;5097117;28;19913;-77
2022/05/20 02:08:34;;;;;;;;;;;17.00;1.00;;;;;;5069799;28;19909;-77
2022/05/20 02:11:04;;;;;;;;;;;17.00;1.00;;;;;;5055987;28;20565;-77
2022/05/20 02:16:46;;;;;;;;;;;17.10;1.00;;;;;;5058563;28;20005;-84
2022/05/20 02:22:17;;;;;;;;;;;17.20;1.00;;;;;;5064397;28;19915;-84
2022/05/20 02:27:48;;;;;;;;;;;17.20;1.00;;;;;;5058974;28;20398;-83
2022/05/20 02:36:37;;;;;;;;;;;17.30;1.00;;;;;;5072875;28;19993;-84
2022/05/20 02:51:17;;;;;;;;;;;17.40;1.00;;;;;;5055383;28;19916;-84
2022/05/20 02:56:45;;;;;;;;;;;17.50;1.00;;;;;;5075318;28;19916;-84
2022/05/20 03:05:20;;;;;;;;;;;17.50;1.00;;;;;;5068876;28;20421;-83
2022/05/20 03:14:26;;;;;;;;;;;17.50;1.00;;;;;;5054704;28;19923;-83
2022/05/20 03:17:14;;;;;;;;;;;17.40;1.00;;;;;;5060004;28;19908;-83
2022/05/20 03:20:14;;;;;;;;;;;17.40;1.00;;;;;;5060465;28;19920;-83
2022/05/20 03:28:59;;;;;;;;;;;17.50;1.00;;;;;;5068472;28;19923;-77
2022/05/20 03:31:25;;;;;;;;;;;17.50;1.00;;;;;;5067833;28;19939;-76
2022/05/20 03:34:05;;;;;;;;;;;17.30;1.00;;;;;;5054623;28;20020;-77
2022/05/20 03:36:33;;;;;;;;;;;17.40;1.00;;;;;;5067956;28;19909;-77
2022/05/20 03:39:02;;;;;;;;;;;17.40;1.00;;;;;;5054751;28;19913;-77
2022/05/20 03:41:44;;;;;;;;;;;17.40;1.00;;;;;;5074503;28;19909;-77
2022/05/20 03:50:15;;;;;;;;;;;17.40;1.00;;;;;;5054666;28;19999;-84
2022/05/20 03:59:10;;;;;;;;;;;17.40;1.00;;;;;;5062805;28;19920;-78
2022/05/20 04:01:59;;;;;;;;;;;17.40;1.00;;;;;;5061328;28;20003;-77
2022/05/20 04:04:33;;;;;;;;;;;17.40;1.00;;;;;;5051882;28;19921;-77
2022/05/20 04:07:20;;;;;;;;;;;17.40;1.00;;;;;;5067160;28;19913;-77
2022/05/20 04:09:50;;;;;;;;;;;17.40;1.00;;;;;;5054212;28;19944;-77
2022/05/20 04:12:28;;;;;;;;;;;17.40;1.00;;;;;;5045882;28;19927;-73
2022/05/20 04:14:55;;;;;;;;;;;17.40;1.00;;;;;;5051095;28;19958;-72
2022/05/20 04:17:21;;;;;;;;;;;17.40;1.00;;;;;;5056045;28;19917;-72
2022/05/20 04:19:47;;;;;;;;;;;17.50;1.00;;;;;;5064447;28;20314;-71
2022/05/20 04:22:14;;;;;;;;;;;17.50;1.00;;;;;;5053618;28;19966;-71
2022/05/20 04:24:39;;;;;;;;;;;17.60;1.00;;;;;;5053521;28;20335;-71
2022/05/20 04:27:05;;;;;;;;;;;17.60;1.00;;;;;;5063084;28;19962;-71
2022/05/20 04:29:31;;;;;;;;;;;17.60;1.00;;;;;;5066130;28;20424;-71
2022/05/20 04:31:57;;;;;;;;;;;17.60;1.00;;;;;;5055854;28;20011;-72
2022/05/20 04:34:22;;;;;;;;;;;17.60;1.00;;;;;;5055870;28;20253;-72
2022/05/20 04:36:48;;;;;;;;;;;17.60;1.00;;;;;;5053540;28;19913;-71
2022/05/20 04:39:14;;;;;;;;;;;17.60;1.00;;;;;;5052623;28;19915;-71
2022/05/20 04:47:11;;;;;;;;;;;17.60;1.00;;;;;;5056015;28;20330;-71
2022/05/20 04:49:38;;;;;;;;;;;17.60;1.00;;;;;;5057612;28;19940;-72
2022/05/20 04:52:04;;;;;;;;;;;17.70;1.00;;;;;;5070848;28;19917;-72
2022/05/20 04:57:50;;;;;;;;;;;17.70;1.00;;;;;;5067213;28;20326;-79
2022/05/20 05:03:18;;;;;;;;;;;17.60;1.00;;;;;;5057662;28;19957;-84
2022/05/20 05:09:08;;;;;;;;;;;17.70;1.00;;;;;;5074817;28;19915;-85
2022/05/20 05:11:50;;;;;;;;;;;17.60;1.00;;;;;;5096591;28;19959;-84
2022/05/20 05:14:20;;;;;;;;;;;17.50;1.00;;;;;;5068441;28;20269;-83
2022/05/20 05:22:52;;;;;;;;;;;17.40;1.00;;;;;;5063634;28;19916;-73
2022/05/20 05:25:19;;;;;;;;;;;17.40;1.00;;;;;;5059117;28;19943;-73
2022/05/20 05:27:47;;;;;;;;;;;17.50;1.00;;;;;;5038746;28;19920;-73
2022/05/20 05:30:13;;;;;;;;;;;17.50;1.00;;;;;;5057302;28;19987;-75
2022/05/20 05:32:39;;;;;;;;;;;17.60;1.00;;;;;;5067635;28;19913;-75
2022/05/20 05:35:16;;;;;;;;;;;17.70;1.00;;;;;;5062242;28;20312;-75
2022/05/20 05:37:50;;;;;;;;;;;17.70;1.00;;;;;;5059648;28;20488;-78
2022/05/20 05:40:21;;;;;;;;;;;17.80;1.00;;;;;;5052735;28;19913;-76
2022/05/20 05:42:47;;;;;;;;;;;17.80;1.00;;;;;;5069572;28;20352;-76
2022/05/20 05:45:14;;;;;;;;;;;18.00;1.00;;;;;;5069226;28;19908;-73
2022/05/20 05:47:45;;;;;;;;;;;18.00;1.00;;;;;;5058629;28;20426;-73
2022/05/20 05:50:11;;;;;;;;;;;18.20;1.00;;;;;;5058404;28;19912;-74
2022/05/20 05:53:10;;;;;;;;;;;18.30;1.00;;;;;;5062809;28;19924;-76
2022/05/20 05:55:36;;;;;;;;;;;18.50;1.00;;;;;;5051963;28;20004;-78
2022/05/20 05:58:01;;;;;;;;;;;18.60;1.00;;;;;;5050544;28;19996;-78
2022/05/20 06:00:27;;;;;;;;;;;18.80;1.00;;;;;;5049021;28;19913;-77
2022/05/20 06:02:53;;;;;;;;;;;18.90;1.00;;;;;;5058870;28;19913;-77
2022/05/20 06:05:18;;;;;;;;;;;19.10;1.00;;;;;;5060924;28;20279;-85
2022/05/20 06:07:45;;;;;;;;;;;19.30;1.00;;;;;;5056807;28;20002;-85
2022/05/20 06:10:10;;;;;;;;;;;19.40;1.00;;;;;;5055678;28;19917;-85
2022/05/20 06:12:36;;;;;;;;;;;19.50;1.00;;;;;;5063294;28;19962;-85
2022/05/20 06:15:22;;;;;;;;;;;19.70;1.00;;;;;;5073002;28;19913;-78
2022/05/20 06:17:48;;;;;;;;;;;19.80;1.00;;;;;;5059768;28;19992;-81
2022/05/20 06:20:14;;;;;;;;;;;20.10;1.00;;;;;;5049581;28;20399;-82
2022/05/20 06:22:39;;;;;;;;;;;20.30;1.00;;;;;;5052165;28;19913;-82
2022/05/20 06:25:05;;;;;;;;;;;20.50;1.00;;;;;;5035364;28;19912;-82
2022/05/20 06:27:32;;;;;;;;;;;20.70;1.00;;;;;;5055310;28;19917;-81
2022/05/20 06:30:03;;;;;;;;;;;20.90;1.00;;;;;;5069877;28;19986;-82
2022/05/20 06:32:44;;;;;;;;;;;20.80;1.00;;;;;;5065450;28;20004;-81
2022/05/20 06:44:01;;;;;;;;;;;20.90;1.00;;;;;;5055059;28;19954;-82
2022/05/20 06:46:27;;;;;;;;;;;20.90;1.00;;;;;;5063017;28;19909;-78
2022/05/20 06:49:02;;;;;;;;;;;20.90;1.00;;;;;;5059687;28;20390;-77
2022/05/20 06:51:30;;;;;;;;;;;20.90;1.00;;;;;;5065323;28;19908;-77
2022/05/20 06:53:56;;;;;;;;;;;20.90;1.00;;;;;;5056286;28;20604;-78
2022/05/20 06:56:28;;;;;;;;;;;20.90;1.00;;;;;;5057757;28;19912;-77
2022/05/20 06:59:20;;;;;;;;;;;20.90;1.00;;;;;;5065110;28;19958;-76
2022/05/20 07:01:46;;;;;;;;;;;20.80;1.00;;;;;;5061373;28;19912;-78
2022/05/20 07:04:12;;;;;;;;;;;20.80;1.00;;;;;;5067393;28;20390;-77
2022/05/20 07:06:38;;;;;;;;;;;20.90;1.00;;;;;;5059922;28;19913;-77
2022/05/20 07:09:05;;;;;;;;;;;21.00;1.00;;;;;;5058730;28;20401;-76
2022/05/20 07:11:32;;;;;;;;;;;21.00;1.00;;;;;;5073948;28;19917;-77
2022/05/20 07:13:58;;;;;;;;;;;21.00;1.00;;;;;;5074348;28;19914;-77
2022/05/20 07:16:32;;;;;;;;;;;21.10;1.00;;;;;;5074773;28;20398;-82
2022/05/20 07:19:20;;;;;;;;;;;21.10;1.00;;;;;;5064816;28;20273;-82
2022/05/20 07:22:20;;;;;;;;;;;21.20;1.00;;;;;;5066604;28;19909;-82
2022/05/20 07:24:50;;;;;;;;;;;21.40;1.00;;;;;;5067291;28;20000;-82
2022/05/20 07:27:16;;;;;;;;;;;21.50;1.00;;;;;;5053913;28;19913;-82
2022/05/20 07:29:42;;;;;;;;;;;21.50;1.00;;;;;;5058513;28;19915;-82
2022/05/20 07:32:07;;;;;;;;;;;21.60;1.00;;;;;;5066002;28;19916;-73
2022/05/20 07:34:33;;;;;;;;;;;21.70;1.00;;;;;;5062880;28;19912;-73
2022/05/20 07:36:59;;;;;;;;;;;21.90;1.00;;;;;;5055339;28;20003;-72
2022/05/20 07:39:25;;;;;;;;;;;22.20;1.00;;;;;;5059733;28;19921;-73
2022/05/20 07:41:51;;;;;;;;;;;22.40;1.00;;;;;;5053814;28;20606;-72
2022/05/20 07:44:17;;;;;;;;;;;22.60;1.00;;;;;;5058930;28;19916;-71
2022/05/20 07:46:43;;;;;;;;;;;22.90;1.00;;;;;;5066351;28;19958;-71
2022/05/20 07:49:09;;;;;;;;;;;23.10;1.00;;;;;;5069242;28;19913;-71
2022/05/20 07:51:37;;;;;;;;;;;23.30;1.00;;;;;;5053165;28;19913;-71
2022/05/20 07:54:05;;;;;;;;;;;23.50;1.00;;;;;;5071323;28;19908;-71
2022/05/20 07:56:35;;;;;;;;;;;23.60;1.00;;;;;;5061510;28;19920;-71
2022/05/20 07:59:19;;;;;;;;;;;23.70;1.00;;;;;;5053071;28;19915;-71
2022/05/20 08:01:47;;;;;;;;;;;23.90;1.00;;;;;;5053217;28;19938;-71
2022/05/20 08:06:59;;;;;;;;;;;24.20;1.00;;;;;;5057762;28;20362;-71
2022/05/20 08:09:26;;;;;;;;;;;24.10;1.00;;;;;;5073417;28;19918;-71
2022/05/20 08:11:51;;;;;;;;;;;24.10;1.00;;;;;;5060277;28;19967;-78
2022/05/20 08:14:17;;;;;;;;;;;24.00;1.00;;;;;;5061553;28;20352;-79
2022/05/20 08:16:43;;;;;;;;;;;24.00;1.00;;;;;;5068320;28;19919;-78
2022/05/20 08:19:14;;;;;;;;;;;24.10;1.00;;;;;;5062688;28;19909;-80
2022/05/20 08:21:39;;;;;;;;;;;24.20;1.00;;;;;;5066048;28;19912;-80
2022/05/20 08:24:20;;;;;;;;;;;24.30;1.00;;;;;;5062032;28;19920;-79
2022/05/20 08:26:46;;;;;;;;;;;24.20;1.00;;;;;;5085693;28;19917;-81
2022/05/20 08:29:12;;;;;;;;;;;24.30;1.00;;;;;;5065686;28;20010;-80
2022/05/20 08:31:38;;;;;;;;;;;24.40;1.00;;;;;;5100642;28;19968;-83
2022/05/20 08:34:04;;;;;;;;;;;24.50;1.00;;;;;;5060898;28;19923;-77
2022/05/20 08:36:30;;;;;;;;;;;24.60;1.00;;;;;;5069657;28;19909;-80
2022/05/20 08:38:56;;;;;;;;;;;24.50;1.00;;;;;;5086852;28;20038;-79
2022/05/20 08:41:31;;;;;;;;;;;24.50;1.00;;;;;;5067843;28;19915;-78
2022/05/20 08:43:57;;;;;;;;;;;24.50;1.00;;;;;;5076831;28;19915;-78
2022/05/20 08:46:23;;;;;;;;;;;24.50;1.00;;;;;;5076707;28;19948;-78
2022/05/20 08:48:51;;;;;;;;;;;24.50;1.00;;;;;;5081939;28;19992;-80
2022/05/20 08:51:16;;;;;;;;;;;24.50;1.00;;;;;;5055177;28;19916;-80
2022/05/20 08:53:44;;;;;;;;;;;24.60;1.00;;;;;;5088641;28;20426;-81
2022/05/20 08:56:12;;;;;;;;;;;24.60;1.00;;;;;;5059904;28;19914;-81
2022/05/20 08:58:40;;;;;;;;;;;24.60;1.00;;;;;;5075829;28;19915;-81
2022/05/20 09:01:08;;;;;;;;;;;24.80;1.00;;;;;;5076039;28;20356;-81
2022/05/20 09:03:34;;;;;;;;;;;24.80;1.00;;;;;;5066066;28;20019;-80
2022/05/20 09:06:02;;;;;;;;;;;24.70;1.00;;;;;;5075651;28;20011;-80
2022/05/20 09:08:33;;;;;;;;;;;24.60;1.00;;;;;;5076301;28;19908;-80
2022/05/20 09:11:00;;;;;;;;;;;24.70;1.00;;;;;;5108869;28;19935;-80
2022/05/20 09:16:16;;;;;;;;;;;25.10;1.00;;;;;;5062849;28;20011;-80
2022/05/20 09:18:43;;;;;;;;;;;25.40;1.00;;;;;;5068105;28;19913;-80
2022/05/20 09:21:15;;;;;;;;;;;25.60;99.90;;;;;;5065519;28;20071;-80
2022/05/20 09:23:50;;;;;;;;;;;25.90;99.90;;;;;;5054320;28;20359;-80
2022/05/20 09:26:20;;;;;;;;;;;26.20;99.90;;;;;;5071795;28;19920;-78
2022/05/20 09:29:16;;;;;;;;;;;26.40;99.90;;;;;;5066068;28;19927;-79
2022/05/20 09:31:53;;;;;;;;;;;26.40;99.90;;;;;;5044086;28;19917;-79
2022/05/20 09:34:24;;;;;;;;;;;26.40;99.90;;;;;;5049194;28;19909;-80
2022/05/20 09:36:57;;;;;;;;;;;26.60;99.90;;;;;;5050755;28;19912;-80
2022/05/20 09:39:33;;;;;;;;;;;26.90;99.90;;;;;;5036541;28;19913;-80
2022/05/20 09:42:07;;;;;;;;;;;27.10;99.90;;;;;;5044871;28;20202;-80
2022/05/20 09:44:36;;;;;;;;;;;27.40;99.90;;;;;;5045420;28;20023;-80
2022/05/20 09:47:05;;;;;;;;;;;27.70;99.90;;;;;;5045873;28;19909;-80
2022/05/20 09:49:45;;;;;;;;;;;27.80;99.90;;;;;;5047782;28;19917;-79
2022/05/20 09:52:38;;;;;;;;;;;27.80;99.90;;;;;;5027265;28;19928;-79
2022/05/20 09:55:06;;;;;;;;;;;27.80;99.90;;;;;;4947838;29;19997;-79
2022/05/20 09:57:36;;;;;;;;;;;27.50;99.90;;;;;;4973200;28;19911;-79
2022/05/20 10:00:20;;;;;;;;;;;27.50;99.90;;;;;;4974112;28;19937;-80
2022/05/20 10:03:04;;;;;;;;;;;27.10;99.90;;;;;;4970441;28;19910;-80
2022/05/20 10:05:34;;;;;;;;;;;27.20;99.90;;;;;;4972493;28;20361;-79
2022/05/20 10:08:02;;;;;;;;;;;27.00;99.90;;;;;;4965335;28;19910;-80
2022/05/20 10:10:28;;;;;;;;;;;27.00;99.90;;;;;;4991019;28;19932;-80
2022/05/20 10:12:55;;;;;;;;;;;27.00;99.90;;;;;;4992259;28;19913;-79
2022/05/20 10:15:24;;;;;;;;;;;27.00;99.90;;;;;;4986927;28;20009;-79
2022/05/20 10:18:08;;;;;;;;;;;27.10;99.90;;;;;;4979599;28;19914;-80
2022/05/20 10:20:57;;;;;;;;;;;27.10;99.90;;;;;;4993774;28;20388;-75
2022/05/20 10:24:01;;;;;;;;;;;27.30;99.90;;;;;;4987293;28;19967;-75
2022/05/20 10:26:26;;;;;;;;;;;27.40;99.90;;;;;;4954037;29;19910;-75
2022/05/20 10:34:33;;;;;;;;;;;27.10;99.90;;;;;;5032712;28;19916;-84
2022/05/20 10:37:15;;;;;;;;;;;27.30;99.90;;;;;;5032758;28;19995;-85
2022/05/20 10:40:06;;;;;;;;;;;27.20;99.90;;;;;;5021046;28;19909;-85
2022/05/20 10:42:56;;;;;;;;;;;27.00;99.90;;;;;;5032100;28;20008;-84
2022/05/20 10:51:04;;;;;;;;;;;27.30;99.90;;;;;;5032641;28;19959;-84
2022/05/20 10:53:45;;;;;;;;;;;27.30;99.90;;;;;;5012553;28;19917;-84
2022/05/20 10:56:16;;;;;;;;;;;27.40;99.90;;;;;;5035597;28;19916;-84
2022/05/20 10:59:00;;;;;;;;;;;27.50;99.90;;;;;;5073123;28;19908;-84
2022/05/20 11:01:44;;;;;;;;;;;27.50;99.90;;;;;;5074441;28;19920;-83
2022/05/20 11:04:19;;;;;;;;;;;27.60;99.90;;;;;;5058486;28;19913;-84
2022/05/20 11:06:44;;;;;;;;;;;27.80;99.90;;;;;;5074398;28;19915;-84
2022/05/20 11:09:30;;;;;;;;;;;27.80;99.90;;;;;;5074151;28;19912;-84
2022/05/20 11:12:00;;;;;;;;;;;27.90;99.90;;;;;;5051465;28;19948;-85
2022/05/20 11:14:25;;;;;;;;;;;28.00;99.90;;;;;;5052353;28;20360;-84
2022/05/20 11:16:54;;;;;;;;;;;28.10;99.90;;;;;;5050180;28;19912;-84
2022/05/20 11:19:26;;;;;;;;;;;28.00;99.90;;;;;;5052347;28;19913;-85
2022/05/20 11:22:03;;;;;;;;;;;28.10;99.90;;;;;;5051646;28;19960;-75
2022/05/20 11:24:35;;;;;;;;;;;28.10;99.90;;;;;;5051692;28;19909;-75
2022/05/20 11:27:19;;;;;;;;;;;28.40;99.90;;;;;;5043860;28;19929;-75
2022/05/20 11:30:03;;;;;;;;;;;28.60;99.90;;;;;;5047868;28;20381;-75
2022/05/20 11:32:47;;;;;;;;;;;28.80;99.90;;;;;;5050909;28;19913;-75
2022/05/20 11:35:32;;;;;;;;;;;28.90;99.90;;;;;;5051656;28;19916;-84
2022/05/20 11:38:05;;;;;;;;;;;29.10;99.90;;;;;;5051722;28;19909;-85
2022/05/20 11:40:45;;;;;;;;;;;29.30;99.90;;;;;;5051298;28;19920;-85
2022/05/20 11:43:23;;;;;;;;;;;29.50;99.90;;;;;;5050960;28;20379;-85
2022/05/20 11:45:54;;;;;;;;;;;29.50;99.90;;;;;;5041136;28;19924;-80
2022/05/20 11:48:25;;;;;;;;;;;29.70;99.90;;;;;;5037562;28;19917;-85
2022/05/20 11:50:51;;;;;;;;;;;29.90;99.90;;;;;;5071842;28;19966;-75
2022/05/20 11:53:41;;;;;;;;;;;29.80;99.90;;;;;;5072999;28;20317;-75
2022/05/20 11:56:14;;;;;;;;;;;29.80;99.90;;;;;;5073083;28;19909;-75
2022/05/20 11:58:49;;;;;;;;;;;30.00;99.90;;;;;;5072904;28;20419;-75
2022/05/20 12:01:14;;;;;;;;;;;30.10;99.90;;;;;;5073335;28;19908;-75
2022/05/20 12:06:27;;;;;;;;;;;29.70;99.90;;;;;;5049405;28;19916;-85
2022/05/20 12:08:54;;;;;;;;;;;29.80;99.90;;;;;;5031172;28;20384;-85
2022/05/20 12:11:19;;;;;;;;;;;29.70;99.90;;;;;;5031341;28;19913;-84
2022/05/20 12:14:05;;;;;;;;;;;29.70;99.90;;;;;;5039747;28;19919;-85
2022/05/20 12:16:31;;;;;;;;;;;29.90;99.90;;;;;;5036104;28;19921;-85
2022/05/20 12:24:33;;;;;;;;;;;30.50;99.90;;;;;;5032730;28;19916;-84
2022/05/20 12:26:59;;;;;;;;;;;30.30;99.90;;;;;;5029176;28;19920;-83
2022/05/20 12:29:42;;;;;;;;;;;30.00;99.90;;;;;;5045437;28;19916;-84
2022/05/20 12:32:17;;;;;;;;;;;29.80;99.90;;;;;;5051036;28;19913;-84
2022/05/20 12:34:52;;;;;;;;;;;29.90;99.90;;;;;;5050991;28;19913;-84
2022/05/20 12:37:49;;;;;;;;;;;29.90;99.90;;;;;;5050188;28;19982;-75
2022/05/20 12:40:17;;;;;;;;;;;29.80;99.90;;;;;;4990953;28;19910;-75
2022/05/20 12:42:53;;;;;;;;;;;29.80;99.90;;;;;;4982933;28;19913;-74
2022/05/20 12:45:19;;;;;;;;;;;30.10;99.90;;;;;;5004024;28;19909;-74
2022/05/20 12:47:45;;;;;;;;;;;30.10;99.90;;;;;;4990771;28;19921;-75
2022/05/20 12:50:13;;;;;;;;;;;30.30;99.90;;;;;;5000853;28;19914;-74
2022/05/20 12:52:49;;;;;;;;;;;30.40;99.90;;;;;;5010868;28;19913;-75
2022/05/20 12:55:17;;;;;;;;;;;30.60;99.90;;;;;;5010749;28;19910;-74
2022/05/20 12:57:54;;;;;;;;;;;30.90;99.90;;;;;;4996496;28;19980;-74
2022/05/20 13:00:34;;;;;;;;;;;31.00;99.90;;;;;;5010829;28;19936;-75
2022/05/20 13:03:18;;;;;;;;;;;30.80;99.90;;;;;;5004952;28;20354;-75
2022/05/20 13:05:54;;;;;;;;;;;30.90;99.90;;;;;;5007986;28;20396;-75
2022/05/20 13:08:24;;;;;;;;;;;31.20;99.90;;;;;;5010218;28;19913;-74
2022/05/20 13:10:49;;;;;;;;;;;31.40;99.90;;;;;;5010609;28;19910;-74
2022/05/20 13:13:17;;;;;;;;;;;31.20;99.90;;;;;;5005606;28;20359;-74
2022/05/20 13:15:45;;;;;;;;;;;31.10;99.90;;;;;;5036498;28;19909;-75
2022/05/20 13:18:13;;;;;;;;;;;30.80;99.90;;;;;;5064796;28;19920;-74
2022/05/20 13:20:39;;;;;;;;;;;30.60;99.90;;;;;;5071375;28;20420;-75
2022/05/20 13:23:06;;;;;;;;;;;30.00;99.90;;;;;;5075359;28;20347;-75
2022/05/20 13:25:32;;;;;;;;;;;29.70;99.90;;;;;;5074620;28;19963;-75
2022/05/20 13:27:59;;;;;;;;;;;29.70;99.90;;;;;;5075927;28;19921;-75
2022/05/20 13:30:31;;;;;;;;;;;29.90;99.90;;;;;;5069853;28;19913;-74
2022/05/20 13:33:03;;;;;;;;;;;30.10;99.90;;;;;;5055875;28;19917;-74
2022/05/20 13:35:28;;;;;;;;;;;30.40;99.90;;;;;;5071163;28;20549;-74
2022/05/20 13:37:59;;;;;;;;;;;30.50;99.90;;;;;;5066217;28;19908;-74
2022/05/20 13:40:39;;;;;;;;;;;30.20;99.90;;;;;;5066190;28;20372;-74
2022/05/20 13:43:08;;;;;;;;;;;29.90;99.90;;;;;;5073862;28;20291;-73
2022/05/20 13:51:07;;;;;;;;;;;29.40;99.90;;;;;;5068928;28;19959;-87
2022/05/20 13:53:34;;;;;;;;;;;29.20;99.90;;;;;;5070612;28;20286;-72
2022/05/20 13:56:04;;;;;;;;;;;29.10;99.90;;;;;;5075839;28;19908;-77
2022/05/20 13:58:29;;;;;;;;;;;29.00;99.90;;;;;;5075331;28;19955;-77
2022/05/20 14:00:58;;;;;;;;;;;28.80;99.90;;;;;;5075464;28;20363;-77
2022/05/20 14:03:28;;;;;;;;;;;28.30;99.90;;;;;;5072799;28;19909;-77
2022/05/20 14:06:12;;;;;;;;;;;28.30;99.90;;;;;;5074914;28;19912;-77
2022/05/20 14:08:48;;;;;;;;;;;28.30;99.90;;;;;;5070367;28;20256;-76
2022/05/20 14:11:16;;;;;;;;;;;28.40;99.90;;;;;;5068026;28;20007;-76
2022/05/20 14:13:43;;;;;;;;;;;28.40;99.90;;;;;;5065851;28;19917;-75
2022/05/20 14:16:11;;;;;;;;;;;28.40;99.90;;;;;;5068689;28;19922;-75
2022/05/20 14:18:41;;;;;;;;;;;28.40;99.90;;;;;;5057796;28;20032;-75
2022/05/20 14:21:11;;;;;;;;;;;28.40;99.90;;;;;;5060838;28;19908;-75
2022/05/20 14:24:09;;;;;;;;;;;28.30;99.90;;;;;;5058209;28;20265;-77
2022/05/20 14:26:40;;;;;;;;;;;28.20;99.90;;;;;;5032148;28;20373;-77
2022/05/20 14:29:26;;;;;;;;;;;28.20;99.90;;;;;;5041119;28;20028;-77
2022/05/20 14:31:56;;;;;;;;;;;28.10;99.90;;;;;;5039656;28;20304;-80
2022/05/20 14:34:50;;;;;;;;;;;27.90;99.90;;;;;;5052558;28;19923;-81
2022/05/20 14:37:24;;;;;;;;;;;27.80;99.90;;;;;;5028674;28;19910;-81
2022/05/20 14:39:59;;;;;;;;;;;27.50;99.90;;;;;;5030958;28;19909;-81
2022/05/20 14:42:44;;;;;;;;;;;27.30;99.90;;;;;;5045829;28;20000;-81
2022/05/20 14:45:20;;;;;;;;;;;27.10;99.90;;;;;;5041781;28;20058;-81
2022/05/20 14:48:02;;;;;;;;;;;27.00;99.90;;;;;;5053004;28;19916;-81
2022/05/20 14:50:33;;;;;;;;;;;26.90;99.90;;;;;;5041028;28;19916;-81
2022/05/20 14:53:04;;;;;;;;;;;26.90;99.90;;;;;;5052045;28;20320;-81
2022/05/20 14:55:53;;;;;;;;;;;27.00;99.90;;;;;;5039838;28;19916;-81
2022/05/20 14:58:22;;;;;;;;;;;27.10;99.90;;;;;;5052951;28;19998;-81
2022/05/20 15:01:14;;;;;;;;;;;27.40;99.90;;;;;;5039482;28;20276;-81
2022/05/20 15:03:41;;;;;;;;;;;27.70;99.90;;;;;;5061523;28;19913;-81
2022/05/20 15:06:12;;;;;;;;;;;28.40;99.90;;;;;;5066804;28;19998;-81
2022/05/20 15:08:39;;;;;;;;;;;29.00;99.90;;;;;;5059126;28;19913;-82
2022/05/20 15:11:08;;;;;;;;;;;29.60;99.90;;;;;;5059958;28;19909;-82
2022/05/20 15:13:34;;;;;;;;;;;30.10;99.90;;;;;;5070708;28;20037;-72
2022/05/20 15:15:59;;;;;;;;;;;30.50;99.90;;;;;;5065226;28;20363;-72
2022/05/20 15:18:25;;;;;;;;;;;30.70;99.90;;;;;;5070565;28;19912;-72
2022/05/20 15:20:53;;;;;;;;;;;31.30;99.90;;;;;;5074468;28;19936;-72
2022/05/20 15:23:21;;;;;;;;;;;32.40;99.90;;;;;;5064154;28;19913;-73
2022/05/20 15:25:48;;;;;;;;;;;33.00;99.90;;;;;;5054557;28;19909;-73
2022/05/20 15:36:38;;;;;;;;;;;33.50;99.90;;;;;;5053618;28;19920;-81
2022/05/20 15:39:21;;;;;;;;;;;33.30;99.90;;;;;;5052031;28;20023;-87
2022/05/20 15:45:02;;;;;;;;;;;32.90;99.90;;;;;;5070100;28;19982;-89
2022/05/20 15:47:44;;;;;;;;;;;32.60;99.90;;;;;;5054334;28;19912;-88
2022/05/20 15:50:12;;;;;;;;;;;32.30;99.90;;;;;;5055067;28;19977;-88
2022/05/20 15:53:16;;;;;;;;;;;32.30;99.90;;;;;;5057070;28;19920;-86
2022/05/20 15:55:47;;;;;;;;;;;32.20;99.90;;;;;;5041759;28;20280;-85
2022/05/20 16:01:16;;;;;;;;;;;31.80;99.90;;;;;;5048248;28;19959;-81
2022/05/20 16:03:42;;;;;;;;;;;31.50;99.90;;;;;;5031747;28;19913;-77
2022/05/20 16:06:12;;;;;;;;;;;31.20;99.90;;;;;;5031258;28;20349;-77
2022/05/20 16:08:45;;;;;;;;;;;31.10;99.90;;;;;;5041096;28;19940;-77
2022/05/20 16:11:17;;;;;;;;;;;30.90;99.90;;;;;;5051865;28;19909;-76
2022/05/20 16:13:44;;;;;;;;;;;30.90;99.90;;;;;;5051691;28;19912;-77
2022/05/20 16:16:14;;;;;;;;;;;30.80;99.90;;;;;;5048985;28;19917;-76
2022/05/20 16:18:44;;;;;;;;;;;31.00;99.90;;;;;;5041916;28;19908;-76
2022/05/20 16:21:11;;;;;;;;;;;31.20;99.90;;;;;;5035200;28;19909;-76
2022/05/20 16:23:39;;;;;;;;;;;31.70;99.90;;;;;;5039855;28;19912;-73
2022/05/20 16:26:05;;;;;;;;;;;32.20;99.90;;;;;;5057108;28;19908;-73
2022/05/20 16:28:32;;;;;;;;;;;33.00;99.90;;;;;;5062586;28;19928;-86
2022/05/20 16:30:58;;;;;;;;;;;33.70;99.90;;;;;;5055475;28;19915;-84
2022/05/20 16:33:23;;;;;;;;;;;34.50;99.90;;;;;;5060792;28;19921;-73
2022/05/20 16:35:50;;;;;;;;;;;35.00;99.90;;;;;;5057863;28;19969;-73
2022/05/20 16:38:16;;;;;;;;;;;35.90;99.90;;;;;;5055156;28;19909;-78
2022/05/20 16:40:42;;;;;;;;;;;36.10;99.90;;;;;;5051551;28;19938;-77
2022/05/20 16:43:07;;;;;;;;;;;35.40;99.90;;;;;;5089660;28;19908;-76
2022/05/20 16:45:33;;;;;;;;;;;35.40;99.90;;;;;;5064675;28;19915;-79
2022/05/20 16:48:00;;;;;;;;;;;35.70;99.90;;;;;;5072596;28;19908;-75
2022/05/20 16:50:28;;;;;;;;;;;35.40;99.90;;;;;;5072879;28;19944;-75
2022/05/20 16:52:53;;;;;;;;;;;34.80;99.90;;;;;;5093126;28;19917;-76
2022/05/20 16:55:19;;;;;;;;;;;34.20;99.90;;;;;;5058532;28;20298;-84
2022/05/20 17:03:13;;;;;;;;;;;34.80;99.90;;;;;;5062095;28;19935;-86
2022/05/20 17:05:38;;;;;;;;;;;34.70;99.90;;;;;;5060270;28;20351;-86
2022/05/20 17:08:05;;;;;;;;;;;34.70;99.90;;;;;;5076137;28;19973;-85
2022/05/20 17:10:31;;;;;;;;;;;34.90;99.90;;;;;;5071202;28;19909;-85
2022/05/20 17:12:57;;;;;;;;;;;35.10;99.90;;;;;;5055566;28;19917;-84
2022/05/20 17:15:23;;;;;;;;;;;35.10;99.90;;;;;;5069045;28;20240;-86
2022/05/20 17:17:49;;;;;;;;;;;34.70;99.90;;;;;;5066290;28;19916;-82
2022/05/20 17:20:15;;;;;;;;;;;33.40;99.90;;;;;;5073251;28;19908;-88
2022/05/20 17:25:24;;;;;;;;;;;31.00;99.90;;;;;;5076066;28;19915;-87
2022/05/20 17:27:51;;;;;;;;;;;30.30;99.90;;;;;;5066618;28;19928;-88
2022/05/20 17:30:19;;;;;;;;;;;29.80;99.90;;;;;;5063694;28;20353;-86
2022/05/20 17:32:44;;;;;;;;;;;29.20;99.90;;;;;;5071397;28;19913;-86
2022/05/20 17:35:16;;;;;;;;;;;28.40;99.90;;;;;;5055808;28;19929;-83
2022/05/20 17:37:44;;;;;;;;;;;28.10;99.90;;;;;;5054664;28;20265;-82
2022/05/20 17:40:14;;;;;;;;;;;27.80;99.90;;;;;;5064022;28;19999;-85
2022/05/20 17:43:05;;;;;;;;;;;27.30;99.90;;;;;;5060115;28;19915;-85